Sagar Sampada — VWXS — position and weather

sailwx.info

Track history (hours):
 
Tides and Currents Weather Stations Pressure Air Temp Water Temp Dewpoint Dewpoint Depression Visibility Wind Speed Wind Dir Waves Ship Positions

Oceanographic research ship Sagar Sampada (India)

Detailed information on ship capabilities available from University of Delaware's Ocean Information Center.

Last reported at 2017-Oct-20 15:09 UTC. Time now 2017-Oct-22 15:28 UTC.
Position N 09°24' E 071°24'.

Type: Ship (hazmat cat A). MMSI: 419323000.

Wind from 020 at 12 knots

Barometer 1008.6 mb
Air temperature 29.2 ° C

Date/timePositionNaut miles runAvg speedWind from/ knotsBaromVisibWave heightAir tempDewpointWater temp
2017-Oct-20 15:09N 09°24' E 071°24'13 4.4 020 / 121008.6 29.2
2017-Oct-20 12:09N 09°30' E 071°12'6 2.0 020 / 21007.5 29.3
2017-Oct-20 09:09N 09°24' E 071°12'6 2.0 050 / 61006.9 30.1
2017-Oct-20 06:09N 09°24' E 071°18'178 4.0 080 / 41009.3 32.8
2017-Oct-18 09:09N 09°42' E 074°18'19 6.2 300 / 121006.1 27.8
2017-Oct-18 06:09N 09°48' E 074°36'24 7.9 280 / 121008.8 26.8
2017-Oct-18 03:09N 09°48' E 075°00'24 7.0 270 / 101008.8 25.6
2017-Oct-17 23:39N 09°54' E 075°24'12 4.7 260 / 81006.3 26.4
2017-Oct-17 21:09N 09°54' E 075°36'36 6.0 010 / 41007.3 25.4
2017-Oct-17 15:09N 10°00' E 076°12'6 1.7 090 / 61009.3 26.1
2017-Oct-17 11:39N 10°00' E 076°18'0 0.0 280 / 21006.8 27.2
2017-Oct-17 09:09N 10°00' E 076°18'0 0.0 260 / 21006.9 27.3
2017-Oct-17 06:09N 10°00' E 076°18'0 0.0 290 / 41009.8 26.4
2017-Oct-17 03:09N 10°00' E 076°18'0 0.0 080 / 41009.3 26.5
2017-Oct-17 00:09N 10°00' E 076°18'0 0.0 080 / 41007.2 25.3
2017-Oct-16 20:39N 10°00' E 076°18'0 0.0 080 / 41007.6 24.9
2017-Oct-15 21:09N 10°00' E 076°18'0 0.0 080 / 21008.3 26.4
2017-Oct-14 18:09N 10°00' E 076°18'0 0.0 090 / 41008.6 25.0
2017-Oct-14 12:09N 10°00' E 076°18'0 0.0 040 / 41006.5 25.5
2017-Oct-14 09:09N 10°00' E 076°18'0 0.0 170 / 41006.4 28.2
2017-Oct-14 06:09N 10°00' E 076°18'0 0.0 110 / 21008.6 26.7
2017-Oct-13 20:39N 10°00' E 076°18'8 0.4 130 / 61006.1 25.7
2017-Oct-12 21:09N 09°54' E 076°12'0 0.0 110 / 61006.1 32.6
2017-Oct-12 18:09N 09°54' E 076°12'0 0.0 130 / 81008.0 26.5
2017-Oct-12 15:09N 09°54' E 076°12'0 0.0 120 / 101008.2 26.7
2017-Oct-12 12:09N 09°54' E 076°12'0 0.0 180 / 61006.0 27.8
2017-Oct-12 08:39N 09°54' E 076°12'0 0.0 240 / 121005.5 29.8
2017-Oct-12 06:09N 09°54' E 076°12'0 0.0 160 / 61007.3 30.0
2017-Oct-12 03:09N 09°54' E 076°12'0 0.0 110 / 101008.4 27.3
2017-Oct-12 00:09N 09°54' E 076°12'0 0.0 120 / 121006.1 26.7
2017-Oct-11 18:09N 09°54' E 076°12'0 0.0 41.8
2017-Oct-11 15:09N 09°54' E 076°12'6 2.0 200 / 101007.8 28.9
2017-Oct-11 12:09N 10°00' E 076°12'6 2.0 190 / 121004.7 29.3
2017-Oct-11 09:09N 10°00' E 076°18'0 0.0 240 / 81004.5 31.1
2017-Oct-11 06:09N 10°00' E 076°18'0 0.0 230 / 61006.5 31.9
2017-Oct-11 03:09N 10°00' E 076°18'0 0.0 090 / 21008.0 28.4
2017-Oct-11 00:09N 10°00' E 076°18'0 0.0 060 / 4
2017-Oct-10 21:09N 10°00' E 076°18'0 0.0 030 / 6
2017-Oct-10 18:09N 10°00' E 076°18'0 0.0 200 / 21006.3 28.9
2017-Oct-10 15:09N 10°00' E 076°18'   250 / 21006.0 28.9
Track history (hours):
 
Tides and Currents Weather Stations Pressure Air Temp Water Temp Dewpoint Dewpoint Depression Visibility Wind Speed Wind Dir Waves Ship Positions

Oceanographic research ship Sagar Sampada (India)

Detailed information on ship capabilities available from University of Delaware's Ocean Information Center.

Last reported at 2017-Oct-20 15:09 UTC. Time now 2017-Oct-22 15:28 UTC.
Position N 09°24' E 071°24'.

Type: Ship (hazmat cat A). MMSI: 419323000.

Wind from 020 at 12 knots

Barometer 1008.6 mb
Air temperature 29.2 ° C

Date/timePositionNaut miles runAvg speedWind from/ knotsBaromVisibWave heightAir tempDewpointWater temp
2017-Oct-20 15:09N 09°24' E 071°24'13 4.4 020 / 121008.6 29.2
2017-Oct-20 12:09N 09°30' E 071°12'6 2.0 020 / 21007.5 29.3
2017-Oct-20 09:09N 09°24' E 071°12'6 2.0 050 / 61006.9 30.1
2017-Oct-20 06:09N 09°24' E 071°18'178 4.0 080 / 41009.3 32.8
2017-Oct-18 09:09N 09°42' E 074°18'19 6.2 300 / 121006.1 27.8
2017-Oct-18 06:09N 09°48' E 074°36'24 7.9 280 / 121008.8 26.8
2017-Oct-18 03:09N 09°48' E 075°00'24 7.0 270 / 101008.8 25.6
2017-Oct-17 23:39N 09°54' E 075°24'12 4.7 260 / 81006.3 26.4
2017-Oct-17 21:09N 09°54' E 075°36'36 6.0 010 / 41007.3 25.4
2017-Oct-17 15:09N 10°00' E 076°12'6 1.7 090 / 61009.3 26.1
2017-Oct-17 11:39N 10°00' E 076°18'0 0.0 280 / 21006.8 27.2
2017-Oct-17 09:09N 10°00' E 076°18'0 0.0 260 / 21006.9 27.3
2017-Oct-17 06:09N 10°00' E 076°18'0 0.0 290 / 41009.8 26.4
2017-Oct-17 03:09N 10°00' E 076°18'0 0.0 080 / 41009.3 26.5
2017-Oct-17 00:09N 10°00' E 076°18'0 0.0 080 / 41007.2 25.3
2017-Oct-16 20:39N 10°00' E 076°18'0 0.0 080 / 41007.6 24.9
2017-Oct-15 21:09N 10°00' E 076°18'0 0.0 080 / 21008.3 26.4
2017-Oct-14 18:09N 10°00' E 076°18'0 0.0 090 / 41008.6 25.0
2017-Oct-14 12:09N 10°00' E 076°18'0 0.0 040 / 41006.5 25.5
2017-Oct-14 09:09N 10°00' E 076°18'0 0.0 170 / 41006.4 28.2
2017-Oct-14 06:09N 10°00' E 076°18'0 0.0 110 / 21008.6 26.7
2017-Oct-13 20:39N 10°00' E 076°18'8 0.4 130 / 61006.1 25.7
2017-Oct-12 21:09N 09°54' E 076°12'0 0.0 110 / 61006.1 32.6
2017-Oct-12 18:09N 09°54' E 076°12'0 0.0 130 / 81008.0 26.5
2017-Oct-12 15:09N 09°54' E 076°12'0 0.0 120 / 101008.2 26.7
2017-Oct-12 12:09N 09°54' E 076°12'0 0.0 180 / 61006.0 27.8
2017-Oct-12 08:39N 09°54' E 076°12'0 0.0 240 / 121005.5 29.8
2017-Oct-12 06:09N 09°54' E 076°12'0 0.0 160 / 61007.3 30.0
2017-Oct-12 03:09N 09°54' E 076°12'0 0.0 110 / 101008.4 27.3
2017-Oct-12 00:09N 09°54' E 076°12'0 0.0 120 / 121006.1 26.7
2017-Oct-11 18:09N 09°54' E 076°12'0 0.0 41.8
2017-Oct-11 15:09N 09°54' E 076°12'6 2.0 200 / 101007.8 28.9
2017-Oct-11 12:09N 10°00' E 076°12'6 2.0 190 / 121004.7 29.3
2017-Oct-11 09:09N 10°00' E 076°18'0 0.0 240 / 81004.5 31.1
2017-Oct-11 06:09N 10°00' E 076°18'0 0.0 230 / 61006.5 31.9
2017-Oct-11 03:09N 10°00' E 076°18'0 0.0 090 / 21008.0 28.4
2017-Oct-11 00:09N 10°00' E 076°18'0 0.0 060 / 4
2017-Oct-10 21:09N 10°00' E 076°18'0 0.0 030 / 6
2017-Oct-10 18:09N 10°00' E 076°18'0 0.0 200 / 21006.3 28.9
2017-Oct-10 15:09N 10°00' E 076°18'   250 / 21006.0 28.9

Dump ship's entire track history